createdAt,value
2019-01-05T00:18:03.944Z,51.00
2019-01-05T00:27:18.386Z,50.70
2019-01-05T00:36:22.295Z,50.50
2019-01-05T00:45:24.032Z,50.30
2019-01-05T00:48:17.235Z,50.20
2019-01-05T00:51:26.607Z,50.20
2019-01-05T00:57:21.120Z,50.10
2019-01-05T01:00:16.950Z,50.10
2019-01-05T01:06:31.217Z,50.00
2019-01-05T01:09:21.058Z,50.00
2019-01-05T01:18:06.866Z,49.80
2019-01-05T01:21:07.014Z,49.80
2019-01-05T01:30:14.174Z,49.80
2019-01-05T01:36:17.261Z,49.70
2019-01-05T02:03:26.807Z,49.40
2019-01-05T02:15:28.174Z,49.40
2019-01-05T02:40:12.824Z,49.60
2019-01-05T02:46:39.628Z,49.50
2019-01-05T02:52:48.700Z,49.50
2019-01-05T02:59:09.859Z,49.50
2019-01-05T03:05:36.560Z,49.40
2019-01-05T03:24:12.688Z,49.40
2019-01-05T03:27:17.461Z,49.40
2019-01-05T03:30:46.205Z,49.40
2019-01-05T03:33:47.388Z,49.40
2019-01-05T03:40:47.858Z,49.50
2019-01-05T03:50:38.338Z,49.60
2019-01-05T03:59:44.038Z,49.70
2019-01-05T04:03:03.475Z,49.60
2019-01-05T04:12:28.213Z,49.60
2019-01-05T04:34:09.667Z,49.20
2019-01-05T04:37:22.495Z,49.10
2019-01-05T04:40:52.180Z,49.10
2019-01-05T04:53:27.298Z,48.70
2019-01-05T04:56:48.448Z,48.70
2019-01-05T05:08:52.485Z,48.50
2019-01-05T05:20:58.180Z,48.50
2019-01-05T05:33:10.844Z,48.60
2019-01-05T05:36:54.761Z,48.70
2019-01-05T05:42:56.281Z,48.80
2019-01-05T05:58:22.735Z,49.00
2019-01-05T06:01:21.576Z,49.10
2019-01-05T06:07:42.995Z,49.00
2019-01-05T06:10:55.225Z,49.00
2019-01-05T06:14:23.123Z,49.10
2019-01-05T06:27:14.273Z,48.90
2019-01-05T06:39:42.728Z,48.90
2019-01-05T06:42:57.966Z,48.80
2019-01-05T07:08:58.393Z,48.60
2019-01-05T07:11:47.563Z,48.60
2019-01-05T07:18:03.166Z,48.60
2019-01-05T07:21:04.182Z,48.70
2019-01-05T07:36:56.239Z,48.70
2019-01-05T07:52:11.204Z,48.90
2019-01-05T07:55:18.754Z,49.00
2019-01-05T07:58:17.014Z,49.00
2019-01-05T08:19:39.613Z,48.90
2019-01-05T08:22:47.029Z,48.90
2019-01-05T08:25:51.239Z,48.80
2019-01-05T08:32:43.511Z,48.80
2019-01-05T08:39:04.331Z,49.40
2019-01-05T08:45:49.675Z,49.90
2019-01-05T08:54:57.573Z,49.90
2019-01-05T09:04:13.319Z,49.70
2019-01-05T09:07:36.848Z,49.50
2019-01-05T09:11:22.997Z,49.60
2019-01-05T09:17:49.254Z,49.20
2019-01-05T09:43:10.419Z,50.00
2019-01-05T09:49:27.896Z,49.80
2019-01-05T09:58:46.322Z,49.20
2019-01-05T10:04:39.126Z,49.40
2019-01-05T10:08:02.213Z,49.00
2019-01-05T10:11:18.826Z,48.70
2019-01-05T10:14:41.326Z,48.70
2019-01-05T10:21:13.826Z,48.60
2019-01-05T10:24:41.196Z,48.70
2019-01-05T10:27:45.146Z,49.00
2019-01-05T10:34:22.410Z,49.20
2019-01-05T10:43:13.750Z,49.60
2019-01-05T10:46:26.762Z,49.40
2019-01-05T10:55:09.050Z,49.30
2019-01-05T10:58:22.239Z,49.40
2019-01-05T11:01:19.524Z,49.40
2019-01-05T11:13:43.617Z,49.80
2019-01-05T11:20:07.061Z,49.70
2019-01-05T11:45:12.692Z,49.60
2019-01-05T11:57:43.615Z,49.50
2019-01-05T12:04:33.839Z,49.50
2019-01-05T12:07:44.848Z,49.80
2019-01-05T12:14:18.098Z,50.20
2019-01-05T12:20:31.310Z,50.40
2019-01-05T12:29:48.145Z,51.80
2019-01-05T12:33:25.331Z,50.60
2019-01-05T12:36:57.497Z,51.20
2019-01-05T12:40:11.103Z,51.50
2019-01-05T12:43:29.164Z,51.70
2019-01-05T12:46:49.102Z,51.80
2019-01-05T12:50:28.124Z,51.60
2019-01-05T12:53:36.012Z,51.70
2019-01-05T12:56:34.682Z,51.80
2019-01-05T12:59:36.244Z,51.80
2019-01-05T13:03:12.432Z,51.90
2019-01-05T13:06:38.528Z,51.60
2019-01-05T13:09:46.256Z,51.50
2019-01-05T13:13:28.490Z,51.50
2019-01-05T13:16:32.662Z,51.40
2019-01-05T13:20:14.958Z,51.40
2019-01-05T13:23:37.842Z,51.40
2019-01-05T13:27:20.276Z,51.40
2019-01-05T13:30:15.890Z,51.50
2019-01-05T13:33:50.983Z,52.00
2019-01-05T13:37:07.612Z,51.80
2019-01-05T13:40:38.235Z,52.10
2019-01-05T13:44:05.920Z,52.70
2019-01-05T13:47:36.472Z,53.70
2019-01-05T13:51:07.106Z,54.00
2019-01-05T13:53:58.850Z,54.30
2019-01-05T13:57:05.260Z,54.30
2019-01-05T14:00:12.468Z,53.90
2019-01-05T14:03:08.415Z,53.90
2019-01-05T14:06:00.785Z,54.30
2019-01-05T14:09:06.883Z,54.70
2019-01-05T14:12:12.702Z,54.70
2019-01-05T14:15:20.282Z,54.50
2019-01-05T14:18:15.957Z,54.70
2019-01-05T14:21:23.736Z,54.70
2019-01-05T14:24:31.665Z,54.60
2019-01-05T14:27:27.399Z,54.40
2019-01-05T14:30:26.538Z,54.50
2019-01-05T14:33:31.148Z,54.40
2019-01-05T14:36:21.009Z,54.30
2019-01-05T14:39:19.811Z,53.90
2019-01-05T14:42:18.969Z,53.60
2019-01-05T14:45:16.424Z,53.50
2019-01-05T14:48:22.213Z,53.50
2019-01-05T14:51:11.947Z,53.40
2019-01-05T14:54:10.773Z,53.30
2019-01-05T14:57:00.910Z,53.30
2019-01-05T14:59:56.332Z,53.20
2019-01-05T15:03:01.979Z,53.10
2019-01-05T15:05:57.570Z,53.10
2019-01-05T15:08:50.311Z,53.00
2019-01-05T15:11:55.900Z,53.00
2019-01-05T15:14:45.569Z,52.90
2019-01-05T15:17:38.521Z,52.80
2019-01-05T15:20:26.583Z,52.80
2019-01-05T15:23:14.717Z,52.80
2019-01-05T15:25:46.164Z,52.80
2019-01-05T15:28:34.344Z,52.80
2019-01-05T15:31:27.285Z,52.80
2019-01-05T15:34:33.190Z,53.20
2019-01-05T15:37:29.309Z,52.80
2019-01-05T15:40:22.355Z,52.80
2019-01-05T15:43:12.472Z,52.90
2019-01-05T15:46:18.448Z,52.90
2019-01-05T15:49:25.003Z,52.90
2019-01-05T15:52:30.862Z,52.80
2019-01-05T15:55:36.285Z,52.80
2019-01-05T15:58:26.251Z,52.80
2019-01-05T16:01:34.236Z,53.00
2019-01-05T16:04:42.261Z,52.90
2019-01-05T16:07:34.726Z,52.60
2019-01-05T16:10:42.531Z,53.00
2019-01-05T16:13:41.175Z,52.90
2019-01-05T16:16:37.052Z,52.90
2019-01-05T16:19:29.820Z,52.80
2019-01-05T16:22:34.938Z,52.80
2019-01-05T16:25:24.660Z,52.80
2019-01-05T16:28:30.718Z,52.70
2019-01-05T16:31:37.108Z,52.70
2019-01-05T16:34:36.123Z,52.70
2019-01-05T16:37:28.511Z,52.70
2019-01-05T16:40:21.432Z,52.60
2019-01-05T16:43:07.196Z,52.60
2019-01-05T16:46:13.754Z,53.10
2019-01-05T16:48:46.162Z,52.50
2019-01-05T16:51:47.402Z,52.50
2019-01-05T16:54:37.464Z,52.50
2019-01-05T16:57:29.932Z,52.50
2019-01-05T17:00:20.760Z,52.50
2019-01-05T17:03:26.691Z,52.40
2019-01-05T17:06:32.638Z,52.40
2019-01-05T17:09:22.719Z,52.40
2019-01-05T17:12:15.497Z,52.40
2019-01-05T17:15:05.402Z,52.40
2019-01-05T17:18:03.765Z,52.30
2019-01-05T17:20:53.943Z,52.30
2019-01-05T17:23:49.744Z,52.30
2019-01-05T17:26:48.950Z,52.30
2019-01-05T17:29:53.559Z,52.30
2019-01-05T17:32:52.422Z,52.30
2019-01-05T17:35:58.041Z,52.20
2019-01-05T17:39:04.437Z,52.20
2019-01-05T17:41:54.390Z,52.20
2019-01-05T17:44:26.427Z,52.20
2019-01-05T17:47:13.105Z,52.20
2019-01-05T17:50:01.860Z,52.10
2019-01-05T17:52:48.618Z,52.10
2019-01-05T17:55:38.221Z,52.10
2019-01-05T17:58:28.237Z,52.00
2019-01-05T18:01:20.905Z,52.00
2019-01-05T18:04:27.010Z,52.00
2019-01-05T18:07:14.286Z,52.00
2019-01-05T18:10:12.943Z,52.10
2019-01-05T18:13:03.064Z,52.10
2019-01-05T18:16:02.226Z,52.10
2019-01-05T18:18:58.102Z,52.20
2019-01-05T18:22:04.103Z,52.20
2019-01-05T18:24:54.589Z,52.20
2019-01-05T18:27:44.548Z,52.20
2019-01-05T18:30:46.340Z,52.20
2019-01-05T18:33:39.069Z,52.20
2019-01-05T18:36:31.385Z,52.20
2019-01-05T18:39:29.914Z,52.10
2019-01-05T18:42:25.750Z,52.10
2019-01-05T18:45:15.700Z,52.00
2019-01-05T18:48:08.426Z,52.60
2019-01-05T18:51:10.216Z,52.10
2019-01-05T18:54:02.710Z,52.10
2019-01-05T18:57:07.680Z,52.10
2019-01-05T18:59:57.685Z,52.10
2019-01-05T19:02:53.179Z,52.20
2019-01-05T19:05:48.994Z,52.20
2019-01-05T19:08:48.106Z,52.20
2019-01-05T19:11:37.952Z,52.60
2019-01-05T19:14:28.292Z,52.30
2019-01-05T19:17:24.449Z,52.30
2019-01-05T19:20:16.717Z,52.30
2019-01-05T19:22:57.194Z,52.40
2019-01-05T19:26:03.428Z,52.40
2019-01-05T19:28:59.028Z,52.40
2019-01-05T19:31:54.291Z,52.40
2019-01-05T19:34:43.905Z,52.40
2019-01-05T19:37:49.942Z,52.50
2019-01-05T19:40:52.187Z,52.40
2019-01-05T19:43:56.708Z,52.40
2019-01-05T19:47:02.775Z,52.50
2019-01-05T19:50:04.771Z,52.40
2019-01-05T19:53:10.405Z,52.40
2019-01-05T19:56:09.760Z,52.40
2019-01-05T19:59:17.525Z,52.50
2019-01-05T20:02:10.307Z,52.40
2019-01-05T20:04:45.970Z,52.40
2019-01-05T20:07:35.810Z,52.40
2019-01-05T20:10:41.756Z,52.40
2019-01-05T20:13:48.132Z,52.40
2019-01-05T20:16:40.677Z,52.40
2019-01-05T20:19:32.945Z,52.40
2019-01-05T20:22:25.292Z,52.40
2019-01-05T20:25:15.030Z,52.40
2019-01-05T20:28:20.207Z,52.40
2019-01-05T20:31:10.218Z,52.40
2019-01-05T20:34:15.975Z,52.40
2019-01-05T20:37:17.449Z,52.40
2019-01-05T20:40:24.744Z,52.40
2019-01-05T20:43:20.172Z,52.40
2019-01-05T20:46:26.376Z,52.40
2019-01-05T20:49:28.145Z,52.50
2019-01-05T20:52:23.978Z,52.50
2019-01-05T20:55:13.907Z,52.50
2019-01-05T20:58:19.835Z,52.50
2019-01-05T21:01:12.994Z,52.50
2019-01-05T21:04:11.953Z,52.60
2019-01-05T21:07:02.015Z,52.60
2019-01-05T21:09:52.067Z,52.50
2019-01-05T21:12:54.180Z,52.60
2019-01-05T21:15:47.302Z,52.60
2019-01-05T21:18:55.670Z,52.60
2019-01-05T21:21:54.599Z,52.60
2019-01-05T21:25:02.394Z,52.60
2019-01-05T21:28:08.768Z,52.60
2019-01-05T21:31:01.547Z,52.50
2019-01-05T21:34:07.770Z,52.60
2019-01-05T21:37:13.079Z,52.40
2019-01-05T21:40:19.029Z,52.40
2019-01-05T21:43:08.884Z,52.40
2019-01-05T21:46:14.502Z,52.40
2019-01-05T21:49:10.498Z,52.40
2019-01-05T21:52:00.633Z,52.40
2019-01-05T21:55:06.966Z,52.40
2019-01-05T21:58:05.546Z,52.40
2019-01-05T22:01:10.689Z,52.40
2019-01-05T22:04:18.710Z,52.40
2019-01-05T22:07:20.375Z,52.40
2019-01-05T22:10:28.502Z,52.40
2019-01-05T22:13:27.292Z,52.40
2019-01-05T22:16:22.754Z,52.40
2019-01-05T22:19:21.271Z,52.40
2019-01-05T22:22:27.274Z,52.50
2019-01-05T22:25:19.673Z,52.50
2019-01-05T22:28:09.476Z,52.70
2019-01-05T22:30:59.688Z,52.70
2019-01-05T22:33:55.490Z,52.70
2019-01-05T22:37:01.752Z,52.70
2019-01-05T22:40:04.010Z,52.70
2019-01-05T22:43:09.249Z,52.70
2019-01-05T22:46:04.949Z,52.80
2019-01-05T22:48:57.412Z,52.80
2019-01-05T22:51:53.203Z,52.80
2019-01-05T22:54:58.927Z,52.80
2019-01-05T22:57:49.399Z,52.90
2019-01-05T23:00:57.233Z,52.90
2019-01-05T23:04:05.520Z,52.80
2019-01-05T23:07:10.442Z,52.90
2019-01-05T23:10:12.254Z,52.90
2019-01-05T23:13:18.173Z,53.00
2019-01-05T23:16:20.576Z,52.90
2019-01-05T23:19:26.535Z,53.00
2019-01-05T23:22:33.243Z,53.00
2019-01-05T23:25:39.927Z,53.10
2019-01-05T23:28:46.190Z,53.10
2019-01-05T23:31:35.762Z,53.10
2019-01-05T23:34:42.238Z,53.10
2019-01-05T23:37:37.717Z,53.00
2019-01-05T23:40:43.701Z,53.00
2019-01-05T23:43:33.343Z,52.90
2019-01-05T23:46:39.663Z,52.80
2019-01-05T23:49:47.621Z,52.60
2019-01-05T23:52:37.717Z,52.50
2019-01-05T23:55:36.593Z,52.40
2019-01-05T23:58:43.370Z,52.30
